Time;durP1;ratioP1;P1;durP2;ratioP2;P2;SDS_P1;SDS_P2;PMS_P1;PMS_P2;Temp;Humidity;BMP_temperature;BMP_pressure;BME280_temperature;BME280_humidity;BME280_pressure;Samples;Min_cycle;Max_cycle;Signal;HPM_P1;HPM_P2
2022/05/14 00:01:16;;;;;;;14.15;5.00;;;11.70;99.90;;;;;;5030246;28;20517;-78
2022/05/14 00:03:42;;;;;;;11.95;4.63;;;11.70;99.90;;;;;;5041603;28;20033;-78
2022/05/14 00:06:14;;;;;;;8.02;4.20;;;11.60;99.90;;;;;;5044671;28;20048;-78
2022/05/14 00:08:40;;;;;;;7.45;3.83;;;11.60;99.90;;;;;;5041456;28;20378;-78
2022/05/14 00:13:52;;;;;;;11.57;4.20;;;11.50;99.90;;;;;;5032273;28;20536;-78
2022/05/14 00:16:20;;;;;;;9.68;4.43;;;11.50;99.90;;;;;;5052689;28;20049;-79
2022/05/14 00:18:51;;;;;;;10.10;3.80;;;11.40;99.90;;;;;;5045201;28;20044;-78
2022/05/14 00:21:19;;;;;;;13.82;4.65;;;11.40;99.90;;;;;;5034485;28;20071;-78
2022/05/14 00:23:45;;;;;;;10.00;4.35;;;11.40;99.90;;;;;;5053362;28;20098;-78
2022/05/14 00:26:12;;;;;;;14.23;3.92;;;11.40;99.90;;;;;;5044989;28;20734;-77
2022/05/14 00:28:38;;;;;;;8.32;4.15;;;11.30;99.90;;;;;;5044013;28;20041;-78
2022/05/14 00:31:04;;;;;;;14.73;4.40;;;11.30;99.90;;;;;;5024830;28;20042;-78
2022/05/14 00:33:30;;;;;;;14.05;4.97;;;11.30;99.90;;;;;;5039890;28;20068;-78
2022/05/14 00:35:56;;;;;;;8.98;4.35;;;11.20;99.90;;;;;;5054629;28;20060;-78
2022/05/14 00:38:21;;;;;;;8.10;4.28;;;11.20;99.90;;;;;;5039423;28;20037;-78
2022/05/14 00:40:58;;;;;;;10.02;4.38;;;11.20;99.90;;;;;;5053480;28;20033;-78
2022/05/14 00:43:25;;;;;;;10.50;4.22;;;11.20;99.90;;;;;;5055880;28;20029;-78
2022/05/14 00:45:58;;;;;;;10.50;4.35;;;11.20;99.90;;;;;;5059654;28;20037;-78
2022/05/14 00:48:29;;;;;;;11.48;4.07;;;11.20;99.90;;;;;;5064526;28;20058;-79
2022/05/14 00:50:57;;;;;;;11.32;4.45;;;11.10;99.90;;;;;;5083926;28;20084;-78
2022/05/14 00:53:32;;;;;;;10.55;4.57;;;11.10;99.90;;;;;;5080269;28;20044;-78
2022/05/14 00:56:02;;;;;;;8.45;4.32;;;11.20;99.90;;;;;;5051194;28;20040;-78
2022/05/14 00:58:53;;;;;;;11.63;4.57;;;11.10;99.90;;;;;;5054047;28;20080;-79
2022/05/14 01:01:18;;;;;;;8.57;4.07;;;11.10;99.90;;;;;;5046052;28;20146;-79
2022/05/14 01:03:44;;;;;;;9.45;4.13;;;11.10;99.90;;;;;;5026951;28;20119;-78
2022/05/14 01:06:14;;;;;;;10.77;4.60;;;11.10;99.90;;;;;;5060056;28;20044;-79
2022/05/14 01:08:42;;;;;;;7.20;4.03;;;11.10;99.90;;;;;;5051726;28;20122;-79
2022/05/14 01:11:08;;;;;;;10.63;3.97;;;11.10;99.90;;;;;;5023514;28;20063;-79
2022/05/14 01:13:34;;;;;;;8.13;5.07;;;11.10;99.90;;;;;;5038267;28;20491;-78
2022/05/14 01:16:03;;;;;;;11.82;4.40;;;11.00;99.90;;;;;;5061594;28;20041;-78
2022/05/14 01:18:33;;;;;;;9.05;4.45;;;11.00;99.90;;;;;;5063174;28;20116;-79
2022/05/14 01:21:06;;;;;;;19.02;4.65;;;11.00;99.90;;;;;;5055624;28;20115;-79
2022/05/14 01:26:28;;;;;;;9.02;3.95;;;11.00;99.90;;;;;;5056594;28;20280;-79
2022/05/14 01:29:00;;;;;;;13.20;4.55;;;11.00;99.90;;;;;;5044097;28;20388;-79
2022/05/14 01:31:27;;;;;;;10.07;3.83;;;11.00;99.90;;;;;;5056700;28;20098;-79
2022/05/14 01:33:54;;;;;;;8.13;3.80;;;11.00;99.90;;;;;;5039549;28;20098;-79
2022/05/14 01:36:21;;;;;;;12.00;4.22;;;11.00;99.90;;;;;;5031820;28;20119;-79
2022/05/14 01:38:47;;;;;;;13.50;4.18;;;11.00;99.90;;;;;;5050218;28;20567;-79
2022/05/14 01:41:12;;;;;;;8.70;4.50;;;11.00;99.90;;;;;;5036221;28;20032;-79
2022/05/14 01:43:39;;;;;;;10.95;4.13;;;11.00;99.90;;;;;;5034057;28;20041;-79
2022/05/14 01:46:06;;;;;;;12.18;4.43;;;11.00;99.90;;;;;;5051839;28;20041;-79
2022/05/14 01:48:32;;;;;;;8.98;4.60;;;11.00;99.90;;;;;;5054569;28;20040;-78
2022/05/14 01:50:57;;;;;;;9.63;3.88;;;10.90;99.90;;;;;;5022311;28;20043;-78
2022/05/14 01:53:23;;;;;;;10.45;4.47;;;11.00;99.90;;;;;;5036894;28;20484;-78
2022/05/14 01:55:49;;;;;;;9.25;4.45;;;11.00;99.90;;;;;;5021232;28;20040;-78
2022/05/14 02:00:59;;;;;;;10.73;4.45;;;11.00;99.90;;;;;;5047168;28;20143;-79
2022/05/14 02:03:25;;;;;;;9.95;4.15;;;11.00;99.90;;;;;;5038318;28;20169;-78
2022/05/14 02:05:51;;;;;;;9.30;4.85;;;11.00;99.90;;;;;;5023802;28;20035;-78
2022/05/14 02:08:16;;;;;;;12.32;4.45;;;11.00;99.90;;;;;;5038455;28;20043;-78
2022/05/14 02:10:42;;;;;;;17.55;5.00;;;11.00;99.90;;;;;;5024952;28;20040;-79
2022/05/14 02:13:10;;;;;;;14.35;4.10;;;11.00;99.90;;;;;;5039725;28;20067;-78
2022/05/14 02:15:37;;;;;;;10.52;4.35;;;11.00;99.90;;;;;;5056749;28;20094;-79
2022/05/14 02:18:02;;;;;;;10.52;4.57;;;11.00;99.90;;;;;;5055021;28;20095;-78
2022/05/14 02:20:29;;;;;;;12.27;4.72;;;11.00;99.90;;;;;;5035059;28;20052;-79
2022/05/14 02:22:54;;;;;;;10.57;4.13;;;11.00;99.90;;;;;;5023894;28;20056;-78
2022/05/14 02:25:20;;;;;;;9.02;3.67;;;11.00;99.90;;;;;;5017629;28;20049;-78
2022/05/14 02:27:46;;;;;;;10.75;4.22;;;11.00;99.90;;;;;;5034784;28;20060;-78
2022/05/14 02:30:13;;;;;;;9.30;4.38;;;11.00;99.90;;;;;;5030692;28;20043;-79
2022/05/14 02:32:38;;;;;;;11.52;4.72;;;11.00;99.90;;;;;;5049867;28;20036;-79
2022/05/14 02:35:05;;;;;;;11.93;4.70;;;10.90;99.90;;;;;;5045887;28;20407;-79
2022/05/14 02:37:32;;;;;;;14.55;4.95;;;10.90;99.90;;;;;;5038344;28;20055;-79
2022/05/14 02:39:58;;;;;;;13.10;4.60;;;10.90;99.90;;;;;;5040137;28;20111;-79
2022/05/14 02:42:24;;;;;;;15.05;4.60;;;10.90;99.90;;;;;;5037813;28;20241;-79
2022/05/14 02:44:49;;;;;;;13.90;4.10;;;10.90;99.90;;;;;;5055928;28;20040;-80
2022/05/14 02:47:16;;;;;;;9.15;5.22;;;10.80;99.90;;;;;;5035104;28;20036;-79
2022/05/14 02:49:41;;;;;;;21.65;4.50;;;10.80;99.90;;;;;;5037200;28;20036;-79
2022/05/14 02:52:07;;;;;;;12.82;5.13;;;10.80;99.90;;;;;;5050445;28;20325;-79
2022/05/14 02:54:34;;;;;;;13.68;5.00;;;10.80;99.90;;;;;;5032381;28;20055;-79
2022/05/14 02:57:00;;;;;;;9.85;4.22;;;10.70;99.90;;;;;;5042075;28;20583;-79
2022/05/14 02:59:26;;;;;;;8.68;4.35;;;10.70;99.90;;;;;;5019768;28;20068;-80
2022/05/14 03:01:52;;;;;;;13.43;5.00;;;10.60;99.90;;;;;;5033668;28;20127;-79
2022/05/14 03:04:22;;;;;;;11.15;5.10;;;10.70;99.90;;;;;;5050903;28;20070;-80
2022/05/14 03:06:50;;;;;;;12.60;4.95;;;10.60;99.90;;;;;;5037112;28;20043;-79
2022/05/14 03:09:15;;;;;;;11.00;4.88;;;10.60;99.90;;;;;;5056160;28;20129;-78
2022/05/14 03:11:41;;;;;;;11.55;4.82;;;10.60;99.90;;;;;;5035156;28;20067;-79
2022/05/14 03:14:07;;;;;;;13.95;5.30;;;10.50;99.90;;;;;;5057159;28;20052;-79
2022/05/14 03:16:33;;;;;;;12.93;5.43;;;10.50;99.90;;;;;;5031145;28;20550;-79
2022/05/14 03:18:59;;;;;;;10.63;5.07;;;10.50;99.90;;;;;;5036626;28;20044;-79
2022/05/14 03:21:24;;;;;;;13.02;5.68;;;10.40;99.90;;;;;;5052804;28;20040;-79
2022/05/14 03:23:50;;;;;;;12.27;5.60;;;10.40;99.90;;;;;;5034824;28;20510;-79
2022/05/14 03:26:17;;;;;;;11.60;5.07;;;10.40;99.90;;;;;;5034361;28;20048;-79
2022/05/14 03:28:43;;;;;;;16.15;5.65;;;10.40;99.90;;;;;;5031841;28;20580;-79
2022/05/14 03:31:09;;;;;;;17.67;5.88;;;10.40;99.90;;;;;;5030449;28;20049;-78
2022/05/14 03:33:34;;;;;;;15.68;7.28;;;10.30;99.90;;;;;;5018425;28;20539;-79
2022/05/14 03:36:00;;;;;;;19.73;5.85;;;10.30;99.90;;;;;;5055840;28;20134;-78
2022/05/14 03:38:26;;;;;;;14.18;5.80;;;10.30;99.90;;;;;;5034835;28;20107;-79
2022/05/14 03:40:52;;;;;;;16.92;5.60;;;10.20;99.90;;;;;;5050623;28;20041;-79
2022/05/14 03:43:17;;;;;;;18.52;5.70;;;10.20;99.90;;;;;;5045523;28;20091;-79
2022/05/14 03:45:43;;;;;;;24.13;5.47;;;10.20;99.90;;;;;;5019864;28;20555;-78
2022/05/14 03:48:09;;;;;;;15.88;5.65;;;10.10;99.90;;;;;;5018390;28;20482;-79
2022/05/14 03:50:35;;;;;;;15.27;5.70;;;10.10;99.90;;;;;;5043946;28;20033;-79
2022/05/14 03:53:00;;;;;;;20.30;5.97;;;10.10;99.90;;;;;;5042482;28;20136;-79
2022/05/14 03:55:26;;;;;;;15.73;6.35;;;10.10;99.90;;;;;;5021242;28;20044;-79
2022/05/14 03:57:52;;;;;;;16.05;5.68;;;10.10;99.90;;;;;;5041264;28;20128;-79
2022/05/14 04:00:19;;;;;;;12.25;5.85;;;10.00;99.90;;;;;;5051354;28;20045;-79
2022/05/14 04:02:46;;;;;;;17.30;6.07;;;10.00;99.90;;;;;;5036464;28;20111;-79
2022/05/14 04:05:14;;;;;;;12.57;6.00;;;10.00;99.90;;;;;;5049447;28;20045;-79
2022/05/14 04:07:41;;;;;;;15.77;6.38;;;10.00;99.90;;;;;;5035629;28;20036;-79
2022/05/14 04:10:08;;;;;;;8.00;5.32;;;10.00;99.90;;;;;;5038277;28;20033;-80
2022/05/14 04:12:34;;;;;;;12.32;5.97;;;9.90;99.90;;;;;;5050080;28;20405;-79
2022/05/14 04:15:00;;;;;;;15.70;6.25;;;9.90;99.90;;;;;;5061320;28;20300;-79
2022/05/14 04:17:26;;;;;;;13.88;5.97;;;9.90;99.90;;;;;;5049425;28;20043;-79
2022/05/14 04:19:51;;;;;;;17.75;5.68;;;9.90;99.90;;;;;;5037546;28;20048;-79
2022/05/14 04:22:17;;;;;;;18.73;7.50;;;9.90;99.90;;;;;;5017684;28;20098;-79
2022/05/14 04:24:43;;;;;;;15.25;6.43;;;9.80;99.90;;;;;;5037192;28;20052;-79
2022/05/14 04:27:08;;;;;;;12.85;5.63;;;9.90;99.90;;;;;;5035401;28;20033;-79
2022/05/14 04:29:34;;;;;;;13.85;6.05;;;9.90;99.90;;;;;;5041963;28;20449;-79
2022/05/14 04:32:00;;;;;;;16.38;5.93;;;9.90;99.90;;;;;;5038170;28;20496;-79
2022/05/14 04:34:26;;;;;;;10.90;6.05;;;9.90;99.90;;;;;;5053687;28;20109;-79
2022/05/14 04:36:51;;;;;;;14.30;6.50;;;9.90;99.90;;;;;;5019582;28;20052;-79
2022/05/14 04:39:17;;;;;;;14.68;6.55;;;9.90;99.90;;;;;;5034765;28;20064;-78
2022/05/14 04:41:43;;;;;;;17.95;6.75;;;9.90;99.90;;;;;;5063087;28;20089;-79
2022/05/14 04:44:08;;;;;;;10.57;5.82;;;9.90;99.90;;;;;;5037825;28;20041;-78
2022/05/14 04:46:35;;;;;;;12.80;6.30;;;9.90;99.90;;;;;;5057051;28;20509;-79
2022/05/14 04:49:03;;;;;;;15.38;6.90;;;9.90;99.90;;;;;;5052536;28;20133;-79
2022/05/14 04:51:28;;;;;;;19.10;6.97;;;10.00;99.90;;;;;;5045776;28;20486;-80
2022/05/14 04:53:54;;;;;;;17.73;6.97;;;10.00;99.90;;;;;;5040081;28;20036;-79
2022/05/14 04:56:20;;;;;;;15.77;6.80;;;10.00;99.90;;;;;;5025274;28;20041;-79
2022/05/14 04:58:45;;;;;;;22.85;7.40;;;10.10;99.90;;;;;;5040509;28;20651;-79
2022/05/14 05:01:11;;;;;;;18.00;6.60;;;10.10;99.90;;;;;;5010195;28;20132;-79
2022/05/14 05:03:39;;;;;;;21.00;6.97;;;10.10;99.90;;;;;;5035641;28;20398;-79
2022/05/14 05:06:06;;;;;;;16.67;7.47;;;10.10;99.90;;;;;;5040560;28;20044;-78
2022/05/14 05:08:33;;;;;;;18.98;6.78;;;10.10;99.90;;;;;;5041875;28;20036;-78
2022/05/14 05:10:59;;;;;;;19.65;8.27;;;10.20;99.90;;;;;;5039462;28;20040;-79
2022/05/14 05:13:27;;;;;;;17.77;7.93;;;10.20;99.90;;;;;;5007901;28;20052;-79
2022/05/14 05:15:52;;;;;;;18.08;7.78;;;10.30;99.90;;;;;;5061114;28;20048;-79
2022/05/14 05:18:19;;;;;;;20.52;8.18;;;10.30;99.90;;;;;;5030474;28;20687;-79
2022/05/14 05:20:49;;;;;;;19.13;7.80;;;10.30;99.90;;;;;;5052006;28;20403;-79
2022/05/14 05:23:17;;;;;;;15.60;7.55;;;10.40;99.90;;;;;;5057468;28;20410;-79
2022/05/14 05:25:45;;;;;;;18.60;8.07;;;10.40;99.90;;;;;;5056145;28;20129;-79
2022/05/14 05:28:11;;;;;;;19.33;8.80;;;10.50;99.90;;;;;;5052125;28;20486;-79
2022/05/14 05:30:37;;;;;;;14.77;7.68;;;10.50;99.90;;;;;;5054893;28;20118;-79
2022/05/14 05:33:02;;;;;;;18.75;7.88;;;10.50;99.90;;;;;;5036668;28;20036;-79
2022/05/14 05:35:28;;;;;;;21.58;8.93;;;10.60;99.90;;;;;;5052937;28;20044;-79
2022/05/14 05:37:54;;;;;;;14.73;7.82;;;10.70;99.90;;;;;;5048800;28;20181;-78
2022/05/14 05:40:20;;;;;;;24.75;8.20;;;10.80;99.90;;;;;;5032263;28;20070;-78
2022/05/14 05:42:46;;;;;;;23.00;8.65;;;10.80;99.90;;;;;;5032879;28;20047;-79
2022/05/14 05:45:15;;;;;;;18.98;8.65;;;10.90;99.90;;;;;;5058416;28;20029;-79
2022/05/14 05:47:41;;;;;;;19.02;7.93;;;11.00;99.90;;;;;;5038782;28;20050;-79
2022/05/14 05:50:08;;;;;;;17.13;8.50;;;11.00;99.90;;;;;;5049140;28;20032;-79
2022/05/14 05:52:33;;;;;;;21.75;8.65;;;11.10;99.90;;;;;;5055781;28;20120;-79
2022/05/14 05:57:44;;;;;;;35.47;9.82;;;11.20;99.90;;;;;;5050493;28;20045;-79
2022/05/14 06:00:13;;;;;;;20.75;8.52;;;11.40;99.90;;;;;;5054480;28;20039;-79
2022/05/14 06:02:39;;;;;;;18.95;9.55;;;11.40;99.90;;;;;;5050561;28;21012;-79
2022/05/14 06:05:05;;;;;;;20.90;8.63;;;11.50;99.90;;;;;;5028022;28;20747;-80
2022/05/14 06:07:33;;;;;;;27.27;9.13;;;11.50;99.90;;;;;;5051180;28;20033;-79
2022/05/14 06:09:58;;;;;;;22.83;9.52;;;11.70;99.90;;;;;;5041053;28;20037;-79
2022/05/14 06:12:24;;;;;;;27.55;9.02;;;11.80;99.90;;;;;;5038148;28;20055;-79
2022/05/14 06:14:50;;;;;;;25.35;9.93;;;11.90;99.90;;;;;;5025792;28;20383;-79
2022/05/14 06:17:16;;;;;;;19.75;8.40;;;12.00;99.90;;;;;;5020391;28;20041;-79
2022/05/14 06:19:42;;;;;;;22.90;8.32;;;12.20;99.90;;;;;;5052598;28;20051;-79
2022/05/14 06:22:08;;;;;;;30.23;9.15;;;12.20;99.90;;;;;;5012387;28;20498;-79
2022/05/14 06:24:36;;;;;;;26.05;8.98;;;12.30;99.90;;;;;;5044958;28;20529;-79
2022/05/14 06:27:02;;;;;;;16.42;8.07;;;12.50;99.90;;;;;;5053651;28;20033;-79
2022/05/14 06:29:28;;;;;;;19.02;7.80;;;12.60;99.90;;;;;;5040836;28;20401;-80
2022/05/14 06:31:54;;;;;;;20.80;8.63;;;12.70;99.90;;;;;;5028808;28;20050;-79
2022/05/14 06:34:20;;;;;;;24.42;8.88;;;12.80;99.90;;;;;;5033540;28;20083;-79
2022/05/14 06:36:46;;;;;;;20.90;8.63;;;12.90;99.90;;;;;;5014789;28;20415;-79
2022/05/14 06:39:11;;;;;;;26.10;9.68;;;13.00;99.90;;;;;;5054406;28;20148;-80
2022/05/14 06:41:38;;;;;;;22.50;8.52;;;13.10;99.90;;;;;;5052538;28;20126;-80
2022/05/14 06:44:04;;;;;;;26.98;9.75;;;13.20;99.90;;;;;;5052637;28;20498;-82
2022/05/14 06:46:30;;;;;;;23.50;8.85;;;13.30;99.90;;;;;;5041284;28;20036;-80
2022/05/14 06:48:56;;;;;;;20.35;8.48;;;13.50;99.90;;;;;;5019851;28;20043;-79
2022/05/14 06:51:25;;;;;;;20.95;8.73;;;13.60;99.90;;;;;;5042211;28;20052;-80
2022/05/14 06:53:54;;;;;;;19.98;6.85;;;13.80;99.90;;;;;;5052112;28;20041;-79
2022/05/14 06:56:21;;;;;;;20.42;6.53;;;14.00;99.90;;;;;;5058471;28;20086;-77
2022/05/14 06:58:49;;;;;;;18.92;6.60;;;14.20;99.90;;;;;;5019796;28;20041;-78
2022/05/14 07:01:17;;;;;;;22.65;7.75;;;14.40;99.90;;;;;;5050180;28;20039;-77
2022/05/14 07:06:43;;;;;;;18.73;5.50;;;14.60;99.90;;;;;;5030710;28;20053;-77
2022/05/14 07:09:12;;;;;;;20.30;7.13;;;14.80;99.90;;;;;;5011015;28;21303;-77
2022/05/14 07:11:41;;;;;;;17.92;6.45;;;14.90;99.90;;;;;;5051675;28;20045;-77
2022/05/14 07:14:07;;;;;;;21.88;5.97;;;14.90;99.90;;;;;;5063787;28;20383;-77
2022/05/14 07:16:33;;;;;;;18.50;5.75;;;14.90;99.90;;;;;;5042272;28;20044;-76
2022/05/14 07:18:59;;;;;;;19.02;6.80;;;15.00;99.90;;;;;;5059904;28;20036;-77
2022/05/14 07:21:25;;;;;;;13.27;5.57;;;15.10;99.90;;;;;;5028938;28;20422;-77
2022/05/14 07:23:51;;;;;;;28.17;5.72;;;15.30;99.90;;;;;;5019870;28;20124;-78
2022/05/14 07:26:17;;;;;;;21.25;6.95;;;15.50;99.90;;;;;;5029632;28;20048;-79
2022/05/14 07:28:42;;;;;;;21.98;6.95;;;15.60;99.90;;;;;;5027942;28;20054;-77
2022/05/14 07:31:08;;;;;;;23.80;6.38;;;15.70;99.90;;;;;;5041436;28;20128;-78
2022/05/14 07:33:36;;;;;;;17.92;5.55;;;15.80;99.90;;;;;;5022863;28;20058;-78
2022/05/14 07:36:07;;;;;;;20.38;5.35;;;15.90;99.90;;;;;;5017601;28;20098;-78
2022/05/14 07:38:35;;;;;;;18.67;5.60;;;16.00;99.90;;;;;;5012866;28;20220;-78
2022/05/14 07:41:02;;;;;;;22.70;6.05;;;16.10;99.90;;;;;;5035351;28;20120;-80
2022/05/14 07:43:30;;;;;;;20.95;5.63;;;16.10;99.90;;;;;;5048003;28;20421;-78
2022/05/14 07:46:02;;;;;;;21.17;6.03;;;16.10;99.90;;;;;;5045324;28;20375;-78
2022/05/14 07:48:33;;;;;;;17.58;5.53;;;16.30;99.90;;;;;;5037481;28;20710;-75
2022/05/14 07:51:01;;;;;;;21.50;5.88;;;16.30;99.90;;;;;;5052670;28;20077;-76
2022/05/14 07:53:30;;;;;;;18.05;5.22;;;16.40;99.90;;;;;;5020579;28;20037;-75
2022/05/14 07:55:57;;;;;;;15.55;5.35;;;16.50;99.90;;;;;;5023868;28;20041;-74
2022/05/14 07:58:26;;;;;;;19.45;5.65;;;16.60;99.90;;;;;;5043869;28;20433;-74
2022/05/14 08:00:52;;;;;;;17.77;5.00;;;16.70;99.90;;;;;;5028354;28;20510;-74
2022/05/14 08:03:18;;;;;;;15.40;5.57;;;16.80;99.90;;;;;;5022488;28;20128;-74
2022/05/14 08:05:47;;;;;;;21.45;5.75;;;16.90;99.90;;;;;;5051784;28;20041;-74
2022/05/14 08:08:12;;;;;;;22.38;6.82;;;17.10;99.90;;;;;;5019475;28;20478;-74
2022/05/14 08:10:38;;;;;;;18.08;5.65;;;17.20;99.90;;;;;;5033976;28;20037;-74
2022/05/14 08:13:07;;;;;;;22.75;6.20;;;17.20;99.90;;;;;;5022073;28;20392;-74
2022/05/14 08:15:32;;;;;;;17.85;5.18;;;17.40;99.90;;;;;;5037527;28;20079;-74
2022/05/14 08:17:58;;;;;;;22.17;5.18;;;17.50;99.90;;;;;;5031083;28;20049;-74
2022/05/14 08:20:24;;;;;;;22.38;7.63;;;17.40;99.90;;;;;;5036357;28;20037;-74
2022/05/14 08:25:37;;;;;;;17.88;5.47;;;17.40;99.90;;;;;;5033400;28;20049;-74
2022/05/14 08:28:03;;;;;;;14.80;5.05;;;17.50;99.90;;;;;;5025048;28;20060;-74
2022/05/14 08:30:32;;;;;;;18.40;5.22;;;17.50;99.90;;;;;;5008055;28;20490;-74
2022/05/14 08:32:59;;;;;;;16.42;5.45;;;17.60;99.90;;;;;;5041875;28;20037;-73
2022/05/14 08:35:26;;;;;;;19.00;5.22;;;17.60;99.90;;;;;;5036084;28;20118;-74
2022/05/14 08:37:54;;;;;;;13.95;5.38;;;17.60;99.80;;;;;;5048436;28;20044;-74
2022/05/14 08:40:30;;;;;;;16.77;4.72;;;17.70;99.60;;;;;;5050508;28;20044;-74
2022/05/14 08:43:01;;;;;;;16.63;5.18;;;17.90;98.70;;;;;;5046615;28;20094;-74
2022/05/14 08:45:33;;;;;;;17.63;4.97;;;18.20;99.40;;;;;;5040734;28;20479;-74
2022/05/14 08:48:03;;;;;;;22.10;5.30;;;18.20;99.00;;;;;;5031562;28;20042;-74
2022/05/14 08:50:34;;;;;;;18.95;5.50;;;18.20;98.80;;;;;;5052707;28;20382;-73
2022/05/14 08:53:03;;;;;;;20.65;5.38;;;18.40;98.70;;;;;;5047725;28;20037;-74
2022/05/14 08:55:54;;;;;;;17.27;5.53;;;18.50;98.50;;;;;;5041251;28;20041;-74
2022/05/14 08:58:50;;;;;;;20.17;4.93;;;18.40;96.60;;;;;;5048826;28;20443;-75
2022/05/14 09:01:21;;;;;;;20.42;5.25;;;18.10;96.50;;;;;;5025305;28;20499;-75
2022/05/14 09:03:46;;;;;;;21.50;5.05;;;18.10;97.60;;;;;;5040340;28;20071;-75
2022/05/14 09:06:12;;;;;;;23.58;6.28;;;18.10;97.30;;;;;;5012589;28;20733;-75
2022/05/14 09:08:40;;;;;;;20.15;5.13;;;18.20;97.10;;;;;;5047552;28;20045;-75
2022/05/14 09:11:18;;;;;;;21.38;6.05;;;18.10;96.60;;;;;;5015192;28;20129;-79
2022/05/14 09:13:48;;;;;;;18.35;5.82;;;18.00;96.70;;;;;;5067128;28;20029;-79
2022/05/14 09:16:35;;;;;;;17.67;5.50;;;17.90;96.80;;;;;;5049659;28;20221;-79
2022/05/14 09:19:11;;;;;;;13.77;4.50;;;17.70;96.50;;;;;;5036257;28;20069;-74
2022/05/14 09:21:38;;;;;;;16.65;5.28;;;17.70;96.60;;;;;;5024988;28;20041;-75
2022/05/14 09:24:18;;;;;;;18.23;5.28;;;17.70;96.60;;;;;;5033305;28;20073;-81
2022/05/14 09:26:44;;;;;;;29.05;6.93;;;17.70;96.00;;;;;;5043165;28;20052;-76
2022/05/14 09:29:35;;;;;;;20.63;5.75;;;17.70;96.50;;;;;;5065851;28;20037;-76
2022/05/14 09:32:17;;;;;;;19.27;5.55;;;17.60;96.20;;;;;;5053784;28;20040;-74
2022/05/14 09:34:43;;;;;;;17.58;4.65;;;17.70;96.00;;;;;;5046975;28;20451;-75
2022/05/14 09:37:12;;;;;;;19.70;5.30;;;18.00;96.80;;;;;;5060207;28;20545;-75
2022/05/14 09:39:39;;;;;;;21.20;5.55;;;18.20;96.50;;;;;;5053092;28;20036;-75
2022/05/14 09:42:07;;;;;;;15.32;4.78;;;18.20;96.30;;;;;;5035309;28;20131;-74
2022/05/14 09:44:46;;;;;;;20.05;4.75;;;18.20;96.20;;;;;;5055051;28;20098;-73
2022/05/14 09:47:34;;;;;;;16.02;5.50;;;18.30;96.10;;;;;;5038926;28;20080;-72
2022/05/14 09:50:03;;;;;;;14.88;4.97;;;18.60;96.40;;;;;;5027357;28;20049;-74
2022/05/14 09:52:32;;;;;;;20.85;4.80;;;19.10;96.10;;;;;;5033163;28;20045;-74
2022/05/14 09:55:01;;;;;;;18.70;5.05;;;19.40;95.80;;;;;;5045396;28;20044;-74
2022/05/14 09:57:39;;;;;;;13.15;4.85;;;19.60;94.80;;;;;;5032136;28;20048;-75
2022/05/14 10:00:31;;;;;;;21.10;5.03;;;19.70;94.70;;;;;;5035096;28;20048;-75
2022/05/14 10:03:09;;;;;;;20.25;4.68;;;19.80;92.90;;;;;;5048319;28;20103;-75
2022/05/14 10:05:59;;;;;;;13.15;4.70;;;19.80;93.80;;;;;;5045466;28;20041;-75
2022/05/14 10:08:43;;;;;;;11.80;4.70;;;19.90;92.60;;;;;;5041682;28;20041;-75
2022/05/14 10:11:30;;;;;;;14.60;5.55;;;19.90;92.80;;;;;;5047571;28;20067;-73
2022/05/14 10:14:23;;;;;;;17.15;4.68;;;20.20;92.60;;;;;;5050313;28;20052;-73
2022/05/14 10:17:04;;;;;;;12.95;5.25;;;20.50;91.10;;;;;;5048844;28;20076;-73
2022/05/14 10:19:44;;;;;;;16.77;5.13;;;20.50;91.70;;;;;;5044873;28;20064;-74
2022/05/14 10:22:18;;;;;;;18.42;5.35;;;20.40;91.50;;;;;;5025982;28;20497;-74
2022/05/14 10:28:22;;;;;;;18.25;7.50;;;20.70;91.50;;;;;;5050982;28;20136;-73
2022/05/14 10:30:50;;;;;;;16.40;4.22;;;20.50;91.00;;;;;;4979382;28;20041;-74
2022/05/14 10:33:24;;;;;;;18.13;5.90;;;20.60;91.60;;;;;;5009068;28;20041;-73
2022/05/14 10:35:59;;;;;;;14.05;5.13;;;20.70;90.90;;;;;;5038072;28;20049;-74
2022/05/14 10:38:31;;;;;;;18.30;5.13;;;20.80;90.60;;;;;;5054895;28;20512;-73
2022/05/14 10:41:04;;;;;;;18.08;4.97;;;20.90;90.30;;;;;;5028896;28;20136;-73
2022/05/14 10:43:51;;;;;;;14.10;4.88;;;21.10;89.90;;;;;;5042514;28;20048;-81
2022/05/14 10:46:24;;;;;;;19.38;4.88;;;21.40;87.50;;;;;;5027324;28;20120;-77
2022/05/14 10:48:58;;;;;;;17.80;4.95;;;21.30;87.60;;;;;;5037317;28;20053;-78
2022/05/14 10:51:34;;;;;;;14.63;5.93;;;21.50;88.10;;;;;;5049267;28;20045;-80
2022/05/14 10:54:02;;;;;;;19.48;5.97;;;21.20;86.10;;;;;;5030527;28;20071;-81
2022/05/14 10:56:38;;;;;;;17.33;5.30;;;20.90;88.20;;;;;;5030189;28;21811;-78
2022/05/14 10:59:07;;;;;;;16.42;4.82;;;20.80;87.80;;;;;;5051845;28;20072;-79
2022/05/14 11:01:59;;;;;;;17.80;5.80;;;20.40;88.80;;;;;;5049411;28;20151;-77
2022/05/14 11:04:28;;;;;;;19.63;5.38;;;20.40;88.70;;;;;;5032565;28;20399;-83
2022/05/14 11:06:58;;;;;;;18.38;5.03;;;20.50;89.50;;;;;;5042110;28;20049;-87
2022/05/14 11:09:38;;;;;;;21.58;5.00;;;20.60;90.00;;;;;;5033473;28;20047;-86
2022/05/14 11:12:18;;;;;;;16.00;4.95;;;20.70;88.40;;;;;;5041166;28;20037;-78
2022/05/14 11:14:43;;;;;;;17.23;4.50;;;20.70;89.10;;;;;;5041431;28;20474;-73
2022/05/14 11:17:28;;;;;;;12.80;4.50;;;20.70;88.40;;;;;;5026772;28;20047;-77
2022/05/14 11:20:07;;;;;;;14.65;4.95;;;20.60;87.50;;;;;;5046893;28;20033;-76
2022/05/14 11:22:37;;;;;;;15.27;5.28;;;20.50;88.10;;;;;;5051048;28;20408;-77
2022/05/14 11:25:09;;;;;;;22.70;5.90;;;20.50;88.40;;;;;;5045597;28;20829;-82
2022/05/14 11:27:39;;;;;;;15.10;4.22;;;20.60;88.70;;;;;;5048245;28;20380;-84
2022/05/14 11:30:12;;;;;;;16.35;4.30;;;20.90;88.20;;;;;;5039350;28;20041;-72
2022/05/14 11:32:52;;;;;;;17.38;4.90;;;21.20;87.50;;;;;;5043690;28;20087;-72
2022/05/14 11:35:19;;;;;;;14.20;4.68;;;21.30;85.60;;;;;;5043168;28;20564;-72
2022/05/14 11:37:48;;;;;;;12.90;4.40;;;21.40;86.70;;;;;;5030035;28;20041;-74
2022/05/14 11:40:20;;;;;;;19.13;4.95;;;21.20;85.90;;;;;;5043962;28;20101;-76
2022/05/14 11:42:51;;;;;;;15.95;4.82;;;21.00;85.30;;;;;;5054625;28;20045;-75
2022/05/14 11:45:28;;;;;;;18.88;5.43;;;20.80;85.60;;;;;;5050844;28;20032;-75
2022/05/14 11:48:20;;;;;;;17.05;5.43;;;20.50;85.60;;;;;;5047828;28;20124;-72
2022/05/14 11:51:14;;;;;;;24.67;7.38;;;20.40;85.20;;;;;;5046645;28;20047;-73
2022/05/14 11:53:45;;;;;;;15.70;5.13;;;20.30;85.30;;;;;;5046979;28;20055;-75
2022/05/14 11:56:25;;;;;;;13.77;4.60;;;20.30;85.50;;;;;;5047537;28;20078;-72
2022/05/14 11:58:58;;;;;;;16.67;5.15;;;20.60;85.60;;;;;;5052488;28;20155;-71
2022/05/14 12:01:30;;;;;;;15.68;4.38;;;21.00;84.50;;;;;;5032247;28;20159;-71
2022/05/14 12:03:59;;;;;;;;;;;21.10;82.30;;;;;;5050512;28;20495;-71
2022/05/14 12:06:52;;;;;;;11.88;4.75;;;21.10;79.90;;;;;;5024872;28;19961;-71
2022/05/14 12:09:33;;;;;;;16.52;5.35;;;21.10;82.50;;;;;;5034813;28;20186;-75
2022/05/14 12:11:59;;;;;;;12.25;5.22;;;20.90;82.90;;;;;;5039503;28;20037;-74
2022/05/14 12:14:31;;;;;;;16.15;4.82;;;20.80;82.60;;;;;;5031035;28;20498;-77
2022/05/14 12:16:59;;;;;;;17.55;5.35;;;20.80;82.30;;;;;;5029212;28;20064;-71
2022/05/14 12:19:31;;;;;;;19.50;5.07;;;20.60;82.80;;;;;;5033062;28;20041;-71
2022/05/14 12:21:59;;;;;;;14.32;4.60;;;20.60;82.10;;;;;;5051134;28;20036;-71
2022/05/14 12:24:39;;;;;;;16.25;4.38;;;20.50;82.20;;;;;;5049887;28;20045;-71
2022/05/14 12:27:25;;;;;;;16.05;4.55;;;20.40;81.50;;;;;;5026402;28;20092;-71
2022/05/14 12:29:55;;;;;;;13.05;4.00;;;20.40;83.90;;;;;;5027548;28;20037;-71
2022/05/14 12:35:19;;;;;;;18.48;4.80;;;20.20;83.60;;;;;;5033472;28;20045;-71
2022/05/14 12:37:45;;;;;;;21.25;5.30;;;20.10;82.60;;;;;;5044769;28;20463;-71
2022/05/14 12:40:35;;;;;;;16.58;4.43;;;20.00;83.00;;;;;;5042607;28;20169;-71
2022/05/14 12:43:04;;;;;;;19.05;4.75;;;20.00;83.00;;;;;;5032838;28;20048;-70
2022/05/14 12:45:36;;;;;;;14.85;4.93;;;20.00;83.00;;;;;;5054840;28;20068;-70
2022/05/14 12:48:03;;;;;;;16.42;4.88;;;20.00;83.60;;;;;;5047607;28;20401;-71
2022/05/14 12:50:32;;;;;;;18.13;4.68;;;20.00;83.90;;;;;;5029346;28;20506;-71
2022/05/14 12:53:08;;;;;;;20.10;4.60;;;20.00;82.70;;;;;;5038721;28;20077;-72
2022/05/14 12:55:45;;;;;;;16.00;4.50;;;20.10;81.60;;;;;;5037127;28;20045;-71
2022/05/14 12:58:13;;;;;;;16.88;4.72;;;20.10;82.00;;;;;;5039240;28;20040;-71
2022/05/14 13:00:40;;;;;;;15.40;4.75;;;20.00;81.90;;;;;;5040291;28;20475;-71
2022/05/14 13:03:41;;;;;;;14.32;4.82;;;20.10;82.10;;;;;;5018204;28;20079;-71
2022/05/14 13:06:17;;;;;;;14.40;4.55;;;20.20;82.00;;;;;;5040659;28;20064;-71
2022/05/14 13:08:49;;;;;;;16.92;4.90;;;20.40;81.50;;;;;;5036630;28;20047;-71
2022/05/14 13:11:17;;;;;;;;;;;20.30;81.00;;;;;;5052064;28;20771;-71
2022/05/14 13:13:46;;;;;;;16.48;4.65;;;20.50;81.40;;;;;;5050668;28;19971;-71